sensor_id;sensor_type;location;lat;lon;timestamp;temperature;humidity
22996;DHT22;11664;49.774;8.650;2023-08-08T00:01:48;14.40;99.90
22996;DHT22;11664;49.774;8.650;2023-08-08T00:04:13;14.40;99.90
22996;DHT22;11664;49.774;8.650;2023-08-08T00:06:42;14.30;99.90
22996;DHT22;11664;49.774;8.650;2023-08-08T00:09:10;14.40;99.90
22996;DHT22;11664;49.774;8.650;2023-08-08T00:11:36;14.50;99.90
22996;DHT22;11664;49.774;8.650;2023-08-08T00:14:02;14.50;99.90
22996;DHT22;11664;49.774;8.650;2023-08-08T00:16:30;14.50;99.90
22996;DHT22;11664;49.774;8.650;2023-08-08T00:19:05;14.40;99.90
22996;DHT22;11664;49.774;8.650;2023-08-08T00:21:30;14.40;99.90
22996;DHT22;11664;49.774;8.650;2023-08-08T00:24:01;14.40;99.90
22996;DHT22;11664;49.774;8.650;2023-08-08T00:26:42;14.40;99.90
22996;DHT22;11664;49.774;8.650;2023-08-08T00:29:10;14.30;99.90
22996;DHT22;11664;49.774;8.650;2023-08-08T00:31:40;14.20;99.90
22996;DHT22;11664;49.774;8.650;2023-08-08T00:34:05;14.10;99.90
22996;DHT22;11664;49.774;8.650;2023-08-08T00:36:31;14.00;99.90
22996;DHT22;11664;49.774;8.650;2023-08-08T00:38:59;14.00;99.90
22996;DHT22;11664;49.774;8.650;2023-08-08T00:41:28;13.90;99.90
22996;DHT22;11664;49.774;8.650;2023-08-08T00:43:53;13.90;99.90
22996;DHT22;11664;49.774;8.650;2023-08-08T00:46:21;13.80;99.90
22996;DHT22;11664;49.774;8.650;2023-08-08T00:48:54;13.70;99.90
22996;DHT22;11664;49.774;8.650;2023-08-08T00:51:20;13.60;99.90
22996;DHT22;11664;49.774;8.650;2023-08-08T00:53:47;13.60;99.90
22996;DHT22;11664;49.774;8.650;2023-08-08T00:56:14;13.50;99.90
22996;DHT22;11664;49.774;8.650;2023-08-08T00:58:42;13.40;99.90
22996;DHT22;11664;49.774;8.650;2023-08-08T01:01:14;13.30;99.90
22996;DHT22;11664;49.774;8.650;2023-08-08T01:03:39;13.40;99.90
22996;DHT22;11664;49.774;8.650;2023-08-08T01:06:25;13.30;99.90
22996;DHT22;11664;49.774;8.650;2023-08-08T01:09:30;13.30;99.90
22996;DHT22;11664;49.774;8.650;2023-08-08T01:12:01;13.30;99.90
22996;DHT22;11664;49.774;8.650;2023-08-08T01:14:37;13.30;99.90
22996;DHT22;11664;49.774;8.650;2023-08-08T01:17:11;13.30;99.90
22996;DHT22;11664;49.774;8.650;2023-08-08T01:19:40;13.30;99.90
22996;DHT22;11664;49.774;8.650;2023-08-08T01:22:23;13.40;99.90
22996;DHT22;11664;49.774;8.650;2023-08-08T01:24:54;13.40;99.90
22996;DHT22;11664;49.774;8.650;2023-08-08T01:27:21;13.40;99.90
22996;DHT22;11664;49.774;8.650;2023-08-08T01:29:47;13.40;99.90
22996;DHT22;11664;49.774;8.650;2023-08-08T01:32:12;13.30;99.90
22996;DHT22;11664;49.774;8.650;2023-08-08T01:34:38;13.40;99.90
22996;DHT22;11664;49.774;8.650;2023-08-08T01:37:35;13.30;99.90
22996;DHT22;11664;49.774;8.650;2023-08-08T01:40:06;13.40;99.90
22996;DHT22;11664;49.774;8.650;2023-08-08T01:42:48;13.30;99.90
22996;DHT22;11664;49.774;8.650;2023-08-08T01:45:15;13.30;99.90
22996;DHT22;11664;49.774;8.650;2023-08-08T01:47:41;13.30;99.90
22996;DHT22;11664;49.774;8.650;2023-08-08T01:50:07;13.20;99.90
22996;DHT22;11664;49.774;8.650;2023-08-08T01:52:35;13.20;99.90
22996;DHT22;11664;49.774;8.650;2023-08-08T01:55:07;13.10;99.90
22996;DHT22;11664;49.774;8.650;2023-08-08T01:57:32;13.20;99.90
22996;DHT22;11664;49.774;8.650;2023-08-08T02:00:07;13.10;99.90
22996;DHT22;11664;49.774;8.650;2023-08-08T02:02:36;13.00;99.90
22996;DHT22;11664;49.774;8.650;2023-08-08T02:05:14;13.00;99.90
22996;DHT22;11664;49.774;8.650;2023-08-08T02:07:42;13.00;99.90
22996;DHT22;11664;49.774;8.650;2023-08-08T02:10:08;13.00;99.90
22996;DHT22;11664;49.774;8.650;2023-08-08T02:12:36;13.00;99.90
22996;DHT22;11664;49.774;8.650;2023-08-08T02:15:05;13.00;99.90
22996;DHT22;11664;49.774;8.650;2023-08-08T02:17:31;13.00;99.90
22996;DHT22;11664;49.774;8.650;2023-08-08T02:19:59;13.00;99.90
22996;DHT22;11664;49.774;8.650;2023-08-08T02:22:25;12.90;99.90
22996;DHT22;11664;49.774;8.650;2023-08-08T02:24:54;12.90;99.90
22996;DHT22;11664;49.774;8.650;2023-08-08T02:27:25;12.80;99.90
22996;DHT22;11664;49.774;8.650;2023-08-08T02:29:57;12.80;99.90
22996;DHT22;11664;49.774;8.650;2023-08-08T02:32:28;12.70;99.90
22996;DHT22;11664;49.774;8.650;2023-08-08T02:35:06;12.70;99.90
22996;DHT22;11664;49.774;8.650;2023-08-08T02:37:32;12.70;99.90
22996;DHT22;11664;49.774;8.650;2023-08-08T02:40:10;12.70;99.90
22996;DHT22;11664;49.774;8.650;2023-08-08T02:42:45;12.70;99.90
22996;DHT22;11664;49.774;8.650;2023-08-08T02:45:13;12.60;99.90
22996;DHT22;11664;49.774;8.650;2023-08-08T02:47:39;12.60;99.90
22996;DHT22;11664;49.774;8.650;2023-08-08T02:50:05;12.60;99.90
22996;DHT22;11664;49.774;8.650;2023-08-08T02:52:36;12.60;99.90
22996;DHT22;11664;49.774;8.650;2023-08-08T02:55:06;12.60;99.90
22996;DHT22;11664;49.774;8.650;2023-08-08T02:57:35;12.70;99.90
22996;DHT22;11664;49.774;8.650;2023-08-08T03:00:07;12.70;99.90
22996;DHT22;11664;49.774;8.650;2023-08-08T03:02:39;12.60;99.90
22996;DHT22;11664;49.774;8.650;2023-08-08T03:05:05;12.60;99.90
22996;DHT22;11664;49.774;8.650;2023-08-08T03:07:37;12.80;99.90
22996;DHT22;11664;49.774;8.650;2023-08-08T03:10:03;12.70;99.90
22996;DHT22;11664;49.774;8.650;2023-08-08T03:12:28;12.60;99.90
22996;DHT22;11664;49.774;8.650;2023-08-08T03:15:09;12.70;99.90
22996;DHT22;11664;49.774;8.650;2023-08-08T03:17:45;12.70;99.90
22996;DHT22;11664;49.774;8.650;2023-08-08T03:20:26;12.60;99.90
22996;DHT22;11664;49.774;8.650;2023-08-08T03:22:51;12.70;99.90
22996;DHT22;11664;49.774;8.650;2023-08-08T03:25:20;12.60;99.90
22996;DHT22;11664;49.774;8.650;2023-08-08T03:27:54;12.70;99.90
22996;DHT22;11664;49.774;8.650;2023-08-08T03:30:20;12.50;99.90
22996;DHT22;11664;49.774;8.650;2023-08-08T03:32:52;12.50;99.90
22996;DHT22;11664;49.774;8.650;2023-08-08T03:35:26;12.50;99.90
22996;DHT22;11664;49.774;8.650;2023-08-08T03:38:01;12.50;99.90
22996;DHT22;11664;49.774;8.650;2023-08-08T03:40:28;12.40;99.90
22996;DHT22;11664;49.774;8.650;2023-08-08T03:42:53;12.50;99.90
22996;DHT22;11664;49.774;8.650;2023-08-08T03:45:25;12.40;99.90
22996;DHT22;11664;49.774;8.650;2023-08-08T03:48:00;12.30;99.90
22996;DHT22;11664;49.774;8.650;2023-08-08T03:50:31;12.30;99.90
22996;DHT22;11664;49.774;8.650;2023-08-08T03:53:09;12.30;99.90
22996;DHT22;11664;49.774;8.650;2023-08-08T03:55:44;12.40;99.90
22996;DHT22;11664;49.774;8.650;2023-08-08T03:58:12;12.30;99.90
22996;DHT22;11664;49.774;8.650;2023-08-08T04:00:42;12.30;99.90
22996;DHT22;11664;49.774;8.650;2023-08-08T04:03:14;12.30;99.90
22996;DHT22;11664;49.774;8.650;2023-08-08T04:05:47;12.30;99.90
22996;DHT22;11664;49.774;8.650;2023-08-08T04:11:39;12.30;99.90
22996;DHT22;11664;49.774;8.650;2023-08-08T04:14:04;12.30;99.90
22996;DHT22;11664;49.774;8.650;2023-08-08T04:16:36;12.30;99.90
22996;DHT22;11664;49.774;8.650;2023-08-08T04:19:26;12.40;99.90
22996;DHT22;11664;49.774;8.650;2023-08-08T04:21:58;12.30;99.90
22996;DHT22;11664;49.774;8.650;2023-08-08T04:24:25;12.30;99.90
22996;DHT22;11664;49.774;8.650;2023-08-08T04:26:50;12.30;99.90
22996;DHT22;11664;49.774;8.650;2023-08-08T04:29:16;12.30;99.90
22996;DHT22;11664;49.774;8.650;2023-08-08T04:31:41;12.30;99.90
22996;DHT22;11664;49.774;8.650;2023-08-08T04:34:07;12.30;99.90
22996;DHT22;11664;49.774;8.650;2023-08-08T04:36:35;12.40;99.90
22996;DHT22;11664;49.774;8.650;2023-08-08T04:39:01;12.40;99.90
22996;DHT22;11664;49.774;8.650;2023-08-08T04:41:33;12.40;99.90
22996;DHT22;11664;49.774;8.650;2023-08-08T04:44:01;12.40;99.90
22996;DHT22;11664;49.774;8.650;2023-08-08T04:46:30;12.40;99.90
22996;DHT22;11664;49.774;8.650;2023-08-08T04:49:02;12.40;99.90
22996;DHT22;11664;49.774;8.650;2023-08-08T04:51:27;12.30;99.90
22996;DHT22;11664;49.774;8.650;2023-08-08T04:53:56;12.30;99.90
22996;DHT22;11664;49.774;8.650;2023-08-08T04:56:24;12.40;99.90
22996;DHT22;11664;49.774;8.650;2023-08-08T04:58:50;12.60;99.90
22996;DHT22;11664;49.774;8.650;2023-08-08T05:01:15;12.50;99.90
22996;DHT22;11664;49.774;8.650;2023-08-08T05:03:43;12.60;99.90
22996;DHT22;11664;49.774;8.650;2023-08-08T05:06:08;12.60;99.90
22996;DHT22;11664;49.774;8.650;2023-08-08T05:08:34;12.50;99.90
22996;DHT22;11664;49.774;8.650;2023-08-08T05:10:59;12.50;99.90
22996;DHT22;11664;49.774;8.650;2023-08-08T05:13:34;12.60;99.90
22996;DHT22;11664;49.774;8.650;2023-08-08T05:15:59;12.60;99.90
22996;DHT22;11664;49.774;8.650;2023-08-08T05:18:25;12.50;99.90
22996;DHT22;11664;49.774;8.650;2023-08-08T05:20:50;12.50;99.90
22996;DHT22;11664;49.774;8.650;2023-08-08T05:23:16;12.60;99.90
22996;DHT22;11664;49.774;8.650;2023-08-08T05:25:45;12.70;99.90
22996;DHT22;11664;49.774;8.650;2023-08-08T05:28:16;12.70;99.90
22996;DHT22;11664;49.774;8.650;2023-08-08T05:30:42;12.70;99.90
22996;DHT22;11664;49.774;8.650;2023-08-08T05:33:23;12.70;99.90
22996;DHT22;11664;49.774;8.650;2023-08-08T05:35:48;12.80;99.90
22996;DHT22;11664;49.774;8.650;2023-08-08T05:38:14;12.90;99.90
22996;DHT22;11664;49.774;8.650;2023-08-08T05:40:39;13.10;99.90
22996;DHT22;11664;49.774;8.650;2023-08-08T05:43:11;13.30;99.90
22996;DHT22;11664;49.774;8.650;2023-08-08T05:45:51;13.30;99.90
22996;DHT22;11664;49.774;8.650;2023-08-08T05:48:19;13.30;99.90
22996;DHT22;11664;49.774;8.650;2023-08-08T05:50:48;13.40;99.90
22996;DHT22;11664;49.774;8.650;2023-08-08T05:53:14;13.50;99.90
22996;DHT22;11664;49.774;8.650;2023-08-08T05:55:42;13.60;99.90
22996;DHT22;11664;49.774;8.650;2023-08-08T05:58:14;13.70;99.90
22996;DHT22;11664;49.774;8.650;2023-08-08T06:00:40;13.80;99.90
22996;DHT22;11664;49.774;8.650;2023-08-08T06:03:12;13.90;99.90
22996;DHT22;11664;49.774;8.650;2023-08-08T06:05:40;13.90;99.90
22996;DHT22;11664;49.774;8.650;2023-08-08T06:08:06;14.00;99.90
22996;DHT22;11664;49.774;8.650;2023-08-08T06:10:39;14.10;99.90
22996;DHT22;11664;49.774;8.650;2023-08-08T06:13:08;14.30;99.90
22996;DHT22;11664;49.774;8.650;2023-08-08T06:15:49;14.30;99.90
22996;DHT22;11664;49.774;8.650;2023-08-08T06:18:16;14.30;99.90
22996;DHT22;11664;49.774;8.650;2023-08-08T06:20:42;14.40;99.90
22996;DHT22;11664;49.774;8.650;2023-08-08T06:23:14;14.50;99.90
22996;DHT22;11664;49.774;8.650;2023-08-08T06:25:40;14.50;99.90
22996;DHT22;11664;49.774;8.650;2023-08-08T06:28:15;14.60;99.90
22996;DHT22;11664;49.774;8.650;2023-08-08T06:30:47;14.70;99.90
22996;DHT22;11664;49.774;8.650;2023-08-08T06:33:12;14.70;99.90
22996;DHT22;11664;49.774;8.650;2023-08-08T06:36:10;14.80;99.90
22996;DHT22;11664;49.774;8.650;2023-08-08T06:38:42;14.80;99.90
22996;DHT22;11664;49.774;8.650;2023-08-08T06:41:08;14.70;99.90
22996;DHT22;11664;49.774;8.650;2023-08-08T06:44:11;14.70;99.90
22996;DHT22;11664;49.774;8.650;2023-08-08T06:46:42;14.70;99.90
22996;DHT22;11664;49.774;8.650;2023-08-08T06:49:08;14.80;99.90
22996;DHT22;11664;49.774;8.650;2023-08-08T06:51:37;14.90;99.90
22996;DHT22;11664;49.774;8.650;2023-08-08T06:54:06;15.00;99.90
22996;DHT22;11664;49.774;8.650;2023-08-08T06:56:33;15.10;99.90
22996;DHT22;11664;49.774;8.650;2023-08-08T06:59:07;15.20;99.90
22996;DHT22;11664;49.774;8.650;2023-08-08T07:01:33;15.20;99.90
22996;DHT22;11664;49.774;8.650;2023-08-08T07:04:02;15.30;99.90
22996;DHT22;11664;49.774;8.650;2023-08-08T07:06:28;15.30;99.90
22996;DHT22;11664;49.774;8.650;2023-08-08T07:08:54;15.30;99.90
22996;DHT22;11664;49.774;8.650;2023-08-08T07:11:20;15.40;99.90
22996;DHT22;11664;49.774;8.650;2023-08-08T07:13:46;15.50;99.90
22996;DHT22;11664;49.774;8.650;2023-08-08T07:16:12;15.50;99.90
22996;DHT22;11664;49.774;8.650;2023-08-08T07:18:44;15.50;99.90
22996;DHT22;11664;49.774;8.650;2023-08-08T07:21:12;15.70;99.90
22996;DHT22;11664;49.774;8.650;2023-08-08T07:23:50;15.70;99.90
22996;DHT22;11664;49.774;8.650;2023-08-08T07:26:28;15.70;99.90
22996;DHT22;11664;49.774;8.650;2023-08-08T07:28:57;15.80;99.90
22996;DHT22;11664;49.774;8.650;2023-08-08T07:31:28;15.90;99.90
22996;DHT22;11664;49.774;8.650;2023-08-08T07:34:00;16.00;99.90
22996;DHT22;11664;49.774;8.650;2023-08-08T07:36:26;16.10;99.90
22996;DHT22;11664;49.774;8.650;2023-08-08T07:39:01;16.20;99.90
22996;DHT22;11664;49.774;8.650;2023-08-08T07:41:28;16.10;99.90
22996;DHT22;11664;49.774;8.650;2023-08-08T07:43:54;16.30;99.90
22996;DHT22;11664;49.774;8.650;2023-08-08T07:46:22;16.40;99.90
22996;DHT22;11664;49.774;8.650;2023-08-08T07:48:54;16.40;99.90
22996;DHT22;11664;49.774;8.650;2023-08-08T07:51:26;16.40;99.90
22996;DHT22;11664;49.774;8.650;2023-08-08T07:53:54;16.60;99.90
22996;DHT22;11664;49.774;8.650;2023-08-08T07:56:26;16.90;99.90
22996;DHT22;11664;49.774;8.650;2023-08-08T07:58:54;17.00;99.90
22996;DHT22;11664;49.774;8.650;2023-08-08T08:01:23;17.00;99.90
22996;DHT22;11664;49.774;8.650;2023-08-08T08:03:58;17.10;99.90
22996;DHT22;11664;49.774;8.650;2023-08-08T08:06:26;17.10;99.90
22996;DHT22;11664;49.774;8.650;2023-08-08T08:08:52;17.00;99.90
22996;DHT22;11664;49.774;8.650;2023-08-08T08:11:17;17.00;99.90
22996;DHT22;11664;49.774;8.650;2023-08-08T08:13:43;17.00;99.90
22996;DHT22;11664;49.774;8.650;2023-08-08T08:16:09;17.20;99.90
22996;DHT22;11664;49.774;8.650;2023-08-08T08:18:37;17.60;99.90
22996;DHT22;11664;49.774;8.650;2023-08-08T08:21:09;18.00;99.90
22996;DHT22;11664;49.774;8.650;2023-08-08T08:23:34;18.20;99.90
22996;DHT22;11664;49.774;8.650;2023-08-08T08:26:00;18.00;99.90
22996;DHT22;11664;49.774;8.650;2023-08-08T08:28:29;18.10;99.90
22996;DHT22;11664;49.774;8.650;2023-08-08T08:30:54;18.00;99.90
22996;DHT22;11664;49.774;8.650;2023-08-08T08:33:26;18.00;99.90
22996;DHT22;11664;49.774;8.650;2023-08-08T08:35:51;17.90;99.90
22996;DHT22;11664;49.774;8.650;2023-08-08T08:38:17;17.90;99.90
22996;DHT22;11664;49.774;8.650;2023-08-08T08:40:43;17.80;99.90
22996;DHT22;11664;49.774;8.650;2023-08-08T08:43:21;18.20;99.90
22996;DHT22;11664;49.774;8.650;2023-08-08T08:45:52;18.10;99.90
22996;DHT22;11664;49.774;8.650;2023-08-08T08:48:21;18.30;99.90
22996;DHT22;11664;49.774;8.650;2023-08-08T08:50:48;18.20;99.90
22996;DHT22;11664;49.774;8.650;2023-08-08T08:53:17;18.30;99.90
22996;DHT22;11664;49.774;8.650;2023-08-08T08:55:43;18.10;99.90
22996;DHT22;11664;49.774;8.650;2023-08-08T08:58:14;18.20;99.90
22996;DHT22;11664;49.774;8.650;2023-08-08T09:00:51;18.20;99.90
22996;DHT22;11664;49.774;8.650;2023-08-08T09:03:20;18.30;99.90
22996;DHT22;11664;49.774;8.650;2023-08-08T09:06:05;18.40;99.90
22996;DHT22;11664;49.774;8.650;2023-08-08T09:08:31;18.40;99.90
22996;DHT22;11664;49.774;8.650;2023-08-08T09:10:56;18.50;99.90
22996;DHT22;11664;49.774;8.650;2023-08-08T09:13:25;18.30;99.90
22996;DHT22;11664;49.774;8.650;2023-08-08T09:15:52;18.40;99.90
22996;DHT22;11664;49.774;8.650;2023-08-08T09:18:23;18.40;99.90
22996;DHT22;11664;49.774;8.650;2023-08-08T09:20:55;18.50;99.90
22996;DHT22;11664;49.774;8.650;2023-08-08T09:23:33;18.70;99.90
22996;DHT22;11664;49.774;8.650;2023-08-08T09:26:13;18.80;99.90
22996;DHT22;11664;49.774;8.650;2023-08-08T09:28:44;18.60;99.90
22996;DHT22;11664;49.774;8.650;2023-08-08T09:31:13;18.50;99.90
22996;DHT22;11664;49.774;8.650;2023-08-08T09:33:39;18.60;99.90
22996;DHT22;11664;49.774;8.650;2023-08-08T09:36:16;18.80;99.90
22996;DHT22;11664;49.774;8.650;2023-08-08T09:38:45;19.00;99.90
22996;DHT22;11664;49.774;8.650;2023-08-08T09:41:14;19.10;99.90
22996;DHT22;11664;49.774;8.650;2023-08-08T09:43:44;19.00;99.90
22996;DHT22;11664;49.774;8.650;2023-08-08T09:46:13;19.20;99.90
22996;DHT22;11664;49.774;8.650;2023-08-08T09:48:44;19.60;99.90
22996;DHT22;11664;49.774;8.650;2023-08-08T09:51:13;19.40;99.90
22996;DHT22;11664;49.774;8.650;2023-08-08T09:53:40;19.90;99.90
22996;DHT22;11664;49.774;8.650;2023-08-08T09:56:06;20.00;99.90
22996;DHT22;11664;49.774;8.650;2023-08-08T09:58:35;19.80;99.90
22996;DHT22;11664;49.774;8.650;2023-08-08T10:01:01;19.90;99.90
22996;DHT22;11664;49.774;8.650;2023-08-08T10:03:33;20.00;99.90
22996;DHT22;11664;49.774;8.650;2023-08-08T10:05:59;20.30;99.90
22996;DHT22;11664;49.774;8.650;2023-08-08T10:08:32;20.00;99.90
22996;DHT22;11664;49.774;8.650;2023-08-08T10:10:58;19.70;99.90
22996;DHT22;11664;49.774;8.650;2023-08-08T10:13:35;20.00;99.90
22996;DHT22;11664;49.774;8.650;2023-08-08T10:16:09;20.40;99.90
22996;DHT22;11664;49.774;8.650;2023-08-08T10:18:35;20.30;99.90
22996;DHT22;11664;49.774;8.650;2023-08-08T10:21:07;20.30;99.90
22996;DHT22;11664;49.774;8.650;2023-08-08T10:23:36;20.50;99.90
22996;DHT22;11664;49.774;8.650;2023-08-08T10:26:03;20.50;99.90
22996;DHT22;11664;49.774;8.650;2023-08-08T10:28:32;20.80;99.90
22996;DHT22;11664;49.774;8.650;2023-08-08T10:30:59;20.50;99.90
22996;DHT22;11664;49.774;8.650;2023-08-08T10:33:39;20.30;99.90
22996;DHT22;11664;49.774;8.650;2023-08-08T10:36:07;20.20;99.90
22996;DHT22;11664;49.774;8.650;2023-08-08T10:38:51;20.50;99.90
22996;DHT22;11664;49.774;8.650;2023-08-08T10:41:21;20.80;99.90
22996;DHT22;11664;49.774;8.650;2023-08-08T10:43:51;20.60;99.90
22996;DHT22;11664;49.774;8.650;2023-08-08T10:46:28;21.20;99.90
22996;DHT22;11664;49.774;8.650;2023-08-08T10:49:06;21.20;99.90
22996;DHT22;11664;49.774;8.650;2023-08-08T10:51:37;21.30;99.90
22996;DHT22;11664;49.774;8.650;2023-08-08T10:54:18;21.20;99.90
22996;DHT22;11664;49.774;8.650;2023-08-08T10:56:53;21.20;99.90
22996;DHT22;11664;49.774;8.650;2023-08-08T10:59:21;21.50;99.90
22996;DHT22;11664;49.774;8.650;2023-08-08T11:01:52;21.90;99.90
22996;DHT22;11664;49.774;8.650;2023-08-08T11:04:24;21.20;99.90
22996;DHT22;11664;49.774;8.650;2023-08-08T11:06:53;21.50;99.90
22996;DHT22;11664;49.774;8.650;2023-08-08T11:09:25;21.40;99.90
22996;DHT22;11664;49.774;8.650;2023-08-08T11:11:58;21.80;99.90
22996;DHT22;11664;49.774;8.650;2023-08-08T11:14:32;22.40;99.90
22996;DHT22;11664;49.774;8.650;2023-08-08T11:16:58;21.40;99.90
22996;DHT22;11664;49.774;8.650;2023-08-08T11:19:23;21.60;99.90
22996;DHT22;11664;49.774;8.650;2023-08-08T11:24:17;21.60;99.90
22996;DHT22;11664;49.774;8.650;2023-08-08T11:26:46;21.50;99.90
22996;DHT22;11664;49.774;8.650;2023-08-08T11:29:18;21.10;99.90
22996;DHT22;11664;49.774;8.650;2023-08-08T11:31:45;21.20;99.90
22996;DHT22;11664;49.774;8.650;2023-08-08T11:34:15;21.70;99.90
22996;DHT22;11664;49.774;8.650;2023-08-08T11:36:44;21.80;99.90
22996;DHT22;11664;49.774;8.650;2023-08-08T11:39:24;21.50;99.90
22996;DHT22;11664;49.774;8.650;2023-08-08T11:41:53;21.30;99.90
22996;DHT22;11664;49.774;8.650;2023-08-08T11:44:19;20.90;99.90
22996;DHT22;11664;49.774;8.650;2023-08-08T11:46:54;21.10;99.90
22996;DHT22;11664;49.774;8.650;2023-08-08T11:49:26;21.50;99.90
22996;DHT22;11664;49.774;8.650;2023-08-08T11:51:57;21.90;99.90
22996;DHT22;11664;49.774;8.650;2023-08-08T11:54:27;21.90;99.90
22996;DHT22;11664;49.774;8.650;2023-08-08T11:56:53;21.60;99.90
22996;DHT22;11664;49.774;8.650;2023-08-08T11:59:28;21.90;99.90
22996;DHT22;11664;49.774;8.650;2023-08-08T12:02:00;22.80;99.20
22996;DHT22;11664;49.774;8.650;2023-08-08T12:04:28;22.40;98.10
22996;DHT22;11664;49.774;8.650;2023-08-08T12:07:13;22.10;99.00
22996;DHT22;11664;49.774;8.650;2023-08-08T12:09:52;21.70;99.90
22996;DHT22;11664;49.774;8.650;2023-08-08T12:12:19;22.00;99.90
22996;DHT22;11664;49.774;8.650;2023-08-08T12:14:45;21.50;99.90
22996;DHT22;11664;49.774;8.650;2023-08-08T12:17:12;21.40;99.90
22996;DHT22;11664;49.774;8.650;2023-08-08T12:19:45;21.80;99.70
22996;DHT22;11664;49.774;8.650;2023-08-08T12:22:14;21.10;98.90
22996;DHT22;11664;49.774;8.650;2023-08-08T12:24:43;21.50;99.00
22996;DHT22;11664;49.774;8.650;2023-08-08T12:27:11;21.60;97.40
22996;DHT22;11664;49.774;8.650;2023-08-08T12:29:37;21.60;96.70
22996;DHT22;11664;49.774;8.650;2023-08-08T12:32:06;21.90;97.00
22996;DHT22;11664;49.774;8.650;2023-08-08T12:34:33;22.20;96.80
22996;DHT22;11664;49.774;8.650;2023-08-08T12:37:05;22.70;96.70
22996;DHT22;11664;49.774;8.650;2023-08-08T12:39:37;22.70;95.20
22996;DHT22;11664;49.774;8.650;2023-08-08T12:42:06;22.50;95.10
22996;DHT22;11664;49.774;8.650;2023-08-08T12:44:38;22.10;95.80
22996;DHT22;11664;49.774;8.650;2023-08-08T12:47:04;22.00;94.70
22996;DHT22;11664;49.774;8.650;2023-08-08T12:49:39;22.30;94.60
22996;DHT22;11664;49.774;8.650;2023-08-08T12:52:14;22.30;94.80
22996;DHT22;11664;49.774;8.650;2023-08-08T12:54:48;22.70;94.50
22996;DHT22;11664;49.774;8.650;2023-08-08T12:57:14;22.10;94.10
22996;DHT22;11664;49.774;8.650;2023-08-08T12:59:39;22.90;95.50
22996;DHT22;11664;49.774;8.650;2023-08-08T13:02:05;23.00;93.00
22996;DHT22;11664;49.774;8.650;2023-08-08T13:04:30;22.60;94.20
22996;DHT22;11664;49.774;8.650;2023-08-08T13:06:59;22.80;93.80
22996;DHT22;11664;49.774;8.650;2023-08-08T13:09:25;22.80;93.00
22996;DHT22;11664;49.774;8.650;2023-08-08T13:11:53;22.80;93.10
22996;DHT22;11664;49.774;8.650;2023-08-08T13:14:19;22.60;92.70
22996;DHT22;11664;49.774;8.650;2023-08-08T13:16:53;22.30;92.80
22996;DHT22;11664;49.774;8.650;2023-08-08T13:19:19;22.20;92.50
22996;DHT22;11664;49.774;8.650;2023-08-08T13:21:53;22.10;92.80
22996;DHT22;11664;49.774;8.650;2023-08-08T13:24:19;22.20;92.90
22996;DHT22;11664;49.774;8.650;2023-08-08T13:26:51;22.30;93.00
22996;DHT22;11664;49.774;8.650;2023-08-08T13:29:26;22.10;93.60
22996;DHT22;11664;49.774;8.650;2023-08-08T13:31:51;21.60;93.40
22996;DHT22;11664;49.774;8.650;2023-08-08T13:34:23;21.40;93.80
22996;DHT22;11664;49.774;8.650;2023-08-08T13:36:52;21.40;94.70
22996;DHT22;11664;49.774;8.650;2023-08-08T13:39:20;21.40;95.20
22996;DHT22;11664;49.774;8.650;2023-08-08T13:42:01;21.30;95.40
22996;DHT22;11664;49.774;8.650;2023-08-08T13:44:27;21.40;95.40
22996;DHT22;11664;49.774;8.650;2023-08-08T13:47:10;21.60;95.60
22996;DHT22;11664;49.774;8.650;2023-08-08T13:49:55;21.30;95.70
22996;DHT22;11664;49.774;8.650;2023-08-08T13:52:20;21.40;96.60
22996;DHT22;11664;49.774;8.650;2023-08-08T13:54:52;21.20;96.60
22996;DHT22;11664;49.774;8.650;2023-08-08T13:57:24;21.10;97.10
22996;DHT22;11664;49.774;8.650;2023-08-08T13:59:49;21.00;97.50
22996;DHT22;11664;49.774;8.650;2023-08-08T14:02:18;20.90;97.60
22996;DHT22;11664;49.774;8.650;2023-08-08T14:04:44;20.80;98.30
22996;DHT22;11664;49.774;8.650;2023-08-08T14:07:14;20.80;97.60
22996;DHT22;11664;49.774;8.650;2023-08-08T14:09:40;20.90;98.20
22996;DHT22;11664;49.774;8.650;2023-08-08T14:12:11;21.10;98.50
22996;DHT22;11664;49.774;8.650;2023-08-08T14:14:39;21.00;98.10
22996;DHT22;11664;49.774;8.650;2023-08-08T14:17:08;21.00;98.60
22996;DHT22;11664;49.774;8.650;2023-08-08T14:19:34;20.80;98.80
22996;DHT22;11664;49.774;8.650;2023-08-08T14:21:59;20.90;99.10
22996;DHT22;11664;49.774;8.650;2023-08-08T14:24:25;20.80;98.20
22996;DHT22;11664;49.774;8.650;2023-08-08T14:26:50;21.10;98.20
22996;DHT22;11664;49.774;8.650;2023-08-08T14:29:16;21.50;97.20
22996;DHT22;11664;49.774;8.650;2023-08-08T14:31:41;21.80;97.60
22996;DHT22;11664;49.774;8.650;2023-08-08T14:34:10;22.00;97.70
22996;DHT22;11664;49.774;8.650;2023-08-08T14:36:35;22.20;97.80
22996;DHT22;11664;49.774;8.650;2023-08-08T14:39:07;22.50;98.10
22996;DHT22;11664;49.774;8.650;2023-08-08T14:41:52;21.70;97.70
22996;DHT22;11664;49.774;8.650;2023-08-08T14:44:17;21.20;98.50
22996;DHT22;11664;49.774;8.650;2023-08-08T14:46:43;21.00;99.30
22996;DHT22;11664;49.774;8.650;2023-08-08T14:49:08;20.90;99.90
22996;DHT22;11664;49.774;8.650;2023-08-08T14:51:43;20.70;99.90
22996;DHT22;11664;49.774;8.650;2023-08-08T14:54:09;20.50;99.90
22996;DHT22;11664;49.774;8.650;2023-08-08T14:56:37;20.40;99.90
22996;DHT22;11664;49.774;8.650;2023-08-08T14:59:09;20.30;99.90
22996;DHT22;11664;49.774;8.650;2023-08-08T15:01:37;20.30;99.90
22996;DHT22;11664;49.774;8.650;2023-08-08T15:04:09;20.20;99.90
22996;DHT22;11664;49.774;8.650;2023-08-08T15:06:36;20.20;99.90
22996;DHT22;11664;49.774;8.650;2023-08-08T15:09:09;20.20;99.90
22996;DHT22;11664;49.774;8.650;2023-08-08T15:11:38;20.00;99.90
22996;DHT22;11664;49.774;8.650;2023-08-08T15:14:06;20.10;99.90
22996;DHT22;11664;49.774;8.650;2023-08-08T15:16:38;20.10;99.90
22996;DHT22;11664;49.774;8.650;2023-08-08T15:19:07;20.00;99.90
22996;DHT22;11664;49.774;8.650;2023-08-08T15:21:38;20.00;99.90
22996;DHT22;11664;49.774;8.650;2023-08-08T15:24:04;20.00;99.90
22996;DHT22;11664;49.774;8.650;2023-08-08T15:26:39;19.90;99.90
22996;DHT22;11664;49.774;8.650;2023-08-08T15:29:05;19.90;99.90
22996;DHT22;11664;49.774;8.650;2023-08-08T15:31:31;19.90;99.90
22996;DHT22;11664;49.774;8.650;2023-08-08T15:34:04;19.90;99.90
22996;DHT22;11664;49.774;8.650;2023-08-08T15:36:33;19.90;99.90
22996;DHT22;11664;49.774;8.650;2023-08-08T15:39:04;19.80;99.90
22996;DHT22;11664;49.774;8.650;2023-08-08T15:41:30;19.80;99.90
22996;DHT22;11664;49.774;8.650;2023-08-08T15:44:02;19.70;99.90
22996;DHT22;11664;49.774;8.650;2023-08-08T15:49:21;19.80;99.90
22996;DHT22;11664;49.774;8.650;2023-08-08T15:51:47;20.00;99.90
22996;DHT22;11664;49.774;8.650;2023-08-08T15:54:13;20.00;99.90
22996;DHT22;11664;49.774;8.650;2023-08-08T15:56:44;19.90;99.90